Quail Valley, California
Current Conditions -  °F | °C
As of 7:15 PM on Monday 20 Oct 2014 (Local Time) from KF70 Reporting Station
Clear Clear  
Wind Chill: 66°   Ceiling: Unl
Heat Index: 66°   Visibility: 10mi
Dew Point: 59°   Wind: 5mph
Humidity: 78%   Direction: 160°SSE
Pressure: 29.91"   Gusts: NA
Location:  33.6906°N, 117.25°W
Report Text: KF70 210215Z AUTO 16004KT 10SM CLR 19/15 A2991 RMK AO1
Loading
Personal Weather Stations






























Interactive Weather Map
Tropical Storm Tracking
New forecast layout! Learn more

10-Day Weather Forecast

Advertisements
Track Severe Weather on mobile